VCV1187 SKBO-SMJP
Flight info
| Callsign | VCV1187 |
|---|---|
| Flight time | N/A |
| Altitude | 36000 |
| Route | USIDO3C OSOVO DCT KEXAN UM662 DADMU UP549 UGVIR |
| Aircraft | A343/H-SDE2E3FGHIJ4J5M1RWXY/LB1D1 |
Departure
| Time | 2026-05-05 13:02 |
|---|---|
| Airport | El Dorado International Airport (SKBO) |
Arrival
| Time | N/A |
|---|---|
| Airport | Johan Adolf Pengel International Airport (SMJP) |
| Time | Latitude | Longitude | Altitude | Speed | Heading |
|---|---|---|---|---|---|
| 2026-05-05 12:20 | 4.70042 | -74.14375 | 8372 ft | 0 kts | 36° |
| 2026-05-05 12:31 | 4.70041 | -74.14376 | 8372 ft | 2 kts | 36° |
| 2026-05-05 12:32 | 4.70020 | -74.14390 | 8374 ft | 4 kts | 30° |
| 2026-05-05 12:32 | 4.69995 | -74.14402 | 8375 ft | 4 kts | 20° |
| 2026-05-05 12:32 | 4.69970 | -74.14410 | 8373 ft | 4 kts | 5° |
| 2026-05-05 12:32 | 4.69945 | -74.14408 | 8377 ft | 4 kts | 325° |
| 2026-05-05 12:33 | 4.69938 | -74.14402 | 8373 ft | 0 kts | 306° |
| 2026-05-05 12:34 | 4.69940 | -74.14405 | 8373 ft | 4 kts | 306° |
| 2026-05-05 12:35 | 4.69989 | -74.14471 | 8374 ft | 19 kts | 307° |
| 2026-05-05 12:35 | 4.70055 | -74.14571 | 8373 ft | 7 kts | 277° |
| 2026-05-05 12:35 | 4.70032 | -74.14609 | 8374 ft | 8 kts | 221° |
| 2026-05-05 12:35 | 4.69969 | -74.14657 | 8372 ft | 15 kts | 217° |
| 2026-05-05 12:36 | 4.69863 | -74.14737 | 8373 ft | 22 kts | 217° |
| 2026-05-05 12:36 | 4.69756 | -74.14808 | 8376 ft | 4 kts | 183° |
| 2026-05-05 12:36 | 4.69725 | -74.14795 | 8372 ft | 9 kts | 146° |
| 2026-05-05 12:36 | 4.69666 | -74.14723 | 8373 ft | 18 kts | 127° |
| 2026-05-05 12:37 | 4.69588 | -74.14621 | 8374 ft | 19 kts | 127° |
| 2026-05-05 12:37 | 4.69503 | -74.14508 | 8374 ft | 22 kts | 127° |
| 2026-05-05 12:37 | 4.69411 | -74.14386 | 8372 ft | 22 kts | 127° |
| 2026-05-05 12:37 | 4.69323 | -74.14271 | 8375 ft | 20 kts | 127° |
| 2026-05-05 12:38 | 4.69240 | -74.14162 | 8373 ft | 19 kts | 128° |
| 2026-05-05 12:38 | 4.69165 | -74.14087 | 8372 ft | 8 kts | 167° |
| 2026-05-05 12:38 | 4.69131 | -74.14097 | 8373 ft | 6 kts | 208° |
| 2026-05-05 12:38 | 4.69111 | -74.14111 | 8374 ft | 0 kts | 216° |
| 2026-05-05 13:01 | 4.69026 | -74.14185 | 8375 ft | 15 kts | 241° |
| 2026-05-05 13:01 | 4.69047 | -74.14264 | 8374 ft | 0 kts | 306° |
| 2026-05-05 13:01 | 4.69055 | -74.14275 | 8375 ft | 9 kts | 306° |
| 2026-05-05 13:01 | 4.69207 | -74.14476 | 8371 ft | 68 kts | 307° |
| 2026-05-05 13:02 | 4.69613 | -74.15012 | 8372 ft | 123 kts | 307° |
| 2026-05-05 13:02 | 4.70232 | -74.15830 | 8371 ft | 169 kts | 307° |
| 2026-05-05 13:02 | 4.70975 | -74.16805 | 8923 ft | 170 kts | 308° |
| 2026-05-05 13:02 | 4.71705 | -74.17732 | 9599 ft | 176 kts | 311° |
| 2026-05-05 13:03 | 4.72710 | -74.18507 | 9873 ft | 197 kts | 339° |
| 2026-05-05 13:03 | 4.74151 | -74.18604 | 9967 ft | 225 kts | 17° |
| 2026-05-05 13:03 | 4.75685 | -74.18019 | 10282 ft | 248 kts | 26° |
| 2026-05-05 13:03 | 4.77044 | -74.17399 | 10692 ft | 260 kts | 27° |
| 2026-05-05 13:04 | 4.78718 | -74.16639 | 11344 ft | 268 kts | 27° |
| 2026-05-05 13:04 | 4.80440 | -74.15873 | 12091 ft | 273 kts | 26° |
| 2026-05-05 13:04 | 4.82188 | -74.15081 | 12864 ft | 277 kts | 31° |
| 2026-05-05 13:04 | 4.83727 | -74.13939 | 13542 ft | 276 kts | 52° |
| 2026-05-05 13:05 | 4.84645 | -74.12286 | 14054 ft | 275 kts | 77° |
| 2026-05-05 13:05 | 4.84893 | -74.10331 | 14333 ft | 295 kts | 89° |
| 2026-05-05 13:05 | 4.84913 | -74.08185 | 14389 ft | 321 kts | 91° |
| 2026-05-05 13:05 | 4.84896 | -74.05847 | 14357 ft | 348 kts | 91° |
| 2026-05-05 13:06 | 4.84881 | -74.03343 | 14358 ft | 367 kts | 91° |
| 2026-05-05 13:06 | 4.84880 | -74.00773 | 14370 ft | 369 kts | 91° |
| 2026-05-05 13:06 | 4.84888 | -73.98200 | 14378 ft | 367 kts | 91° |
| 2026-05-05 13:06 | 4.84899 | -73.95649 | 14375 ft | 365 kts | 91° |
| 2026-05-05 13:07 | 4.84912 | -73.93111 | 14389 ft | 364 kts | 91° |
| 2026-05-05 13:07 | 4.84891 | -73.90570 | 14392 ft | 363 kts | 95° |
| 2026-05-05 13:07 | 4.84406 | -73.88096 | 14386 ft | 362 kts | 111° |
| 2026-05-05 13:07 | 4.83195 | -73.85969 | 14431 ft | 363 kts | 128° |
| 2026-05-05 13:08 | 4.81316 | -73.84159 | 14737 ft | 370 kts | 138° |
| 2026-05-05 13:08 | 4.79333 | -73.82501 | 15363 ft | 372 kts | 139° |
| 2026-05-05 13:08 | 4.77329 | -73.80838 | 15924 ft | 377 kts | 139° |
| 2026-05-05 13:08 | 4.75292 | -73.79142 | 16471 ft | 383 kts | 139° |
| 2026-05-05 13:09 | 4.73280 | -73.77425 | 17046 ft | 387 kts | 136° |
| 2026-05-05 13:09 | 4.71432 | -73.75456 | 17631 ft | 390 kts | 126° |
| 2026-05-05 13:09 | 4.69959 | -73.73161 | 18194 ft | 393 kts | 115° |
| 2026-05-05 13:09 | 4.68949 | -73.70606 | 18771 ft | 396 kts | 104° |
| 2026-05-05 13:10 | 4.68448 | -73.67892 | 19267 ft | 400 kts | 95° |
| 2026-05-05 13:10 | 4.68281 | -73.65093 | 19738 ft | 403 kts | 91° |
| 2026-05-05 13:10 | 4.68242 | -73.62280 | 20333 ft | 404 kts | 89° |
| 2026-05-05 13:10 | 4.68258 | -73.59459 | 20856 ft | 407 kts | 89° |
| 2026-05-05 13:11 | 4.68288 | -73.56611 | 21357 ft | 411 kts | 89° |
| 2026-05-05 13:11 | 4.68312 | -73.53728 | 21831 ft | 415 kts | 89° |
| 2026-05-05 13:11 | 4.68323 | -73.50817 | 22292 ft | 419 kts | 89° |
| 2026-05-05 13:11 | 4.68323 | -73.47881 | 22756 ft | 423 kts | 89° |
| 2026-05-05 13:12 | 4.68313 | -73.44917 | 23186 ft | 427 kts | 89° |
| 2026-05-05 13:12 | 4.68298 | -73.41922 | 23657 ft | 431 kts | 89° |
| 2026-05-05 13:12 | 4.68281 | -73.38907 | 24097 ft | 434 kts | 89° |
| 2026-05-05 13:12 | 4.68263 | -73.35873 | 24448 ft | 437 kts | 89° |
| 2026-05-05 13:13 | 4.68245 | -73.32818 | 24871 ft | 439 kts | 89° |
| 2026-05-05 13:13 | 4.68227 | -73.29743 | 25296 ft | 441 kts | 89° |
| 2026-05-05 13:13 | 4.68209 | -73.26654 | 25717 ft | 443 kts | 89° |
| 2026-05-05 13:13 | 4.68191 | -73.23557 | 26120 ft | 446 kts | 89° |
| 2026-05-05 13:14 | 4.68174 | -73.20481 | 26477 ft | 448 kts | 89° |
| 2026-05-05 13:14 | 4.68157 | -73.17348 | 26890 ft | 451 kts | 90° |
| 2026-05-05 13:14 | 4.68140 | -73.14197 | 27269 ft | 454 kts | 90° |
| 2026-05-05 13:14 | 4.68122 | -73.11029 | 27659 ft | 456 kts | 90° |
| 2026-05-05 13:15 | 4.68105 | -73.07836 | 28001 ft | 459 kts | 90° |
| 2026-05-05 13:15 | 4.68087 | -73.04636 | 28370 ft | 461 kts | 90° |
| 2026-05-05 13:15 | 4.68068 | -73.01410 | 28735 ft | 463 kts | 90° |
| 2026-05-05 13:15 | 4.68049 | -72.98174 | 29087 ft | 466 kts | 90° |
| 2026-05-05 13:16 | 4.68030 | -72.94921 | 29401 ft | 468 kts | 90° |
| 2026-05-05 13:16 | 4.68011 | -72.91651 | 29739 ft | 470 kts | 90° |
| 2026-05-05 13:16 | 4.67992 | -72.88358 | 30079 ft | 473 kts | 90° |
| 2026-05-05 13:16 | 4.67972 | -72.85053 | 30366 ft | 475 kts | 90° |
| 2026-05-05 13:17 | 4.67952 | -72.81730 | 30632 ft | 477 kts | 90° |
| 2026-05-05 13:17 | 4.67932 | -72.78396 | 30875 ft | 479 kts | 90° |
| 2026-05-05 13:17 | 4.67911 | -72.75058 | 31206 ft | 479 kts | 90° |
| 2026-05-05 13:17 | 4.67891 | -72.71714 | 31601 ft | 478 kts | 90° |
| 2026-05-05 13:18 | 4.67870 | -72.68389 | 31989 ft | 477 kts | 90° |
| 2026-05-05 13:18 | 4.67849 | -72.65075 | 32328 ft | 476 kts | 90° |
| 2026-05-05 13:18 | 4.67828 | -72.61760 | 32689 ft | 475 kts | 90° |
| 2026-05-05 13:18 | 4.67807 | -72.58453 | 33043 ft | 474 kts | 90° |
| 2026-05-05 13:19 | 4.67786 | -72.55148 | 33375 ft | 474 kts | 90° |
| 2026-05-05 13:19 | 4.67765 | -72.51848 | 33697 ft | 473 kts | 90° |
| 2026-05-05 13:19 | 4.67744 | -72.48592 | 34036 ft | 472 kts | 90° |
| 2026-05-05 13:19 | 4.67722 | -72.45303 | 34321 ft | 472 kts | 90° |
| 2026-05-05 13:20 | 4.67701 | -72.42018 | 34585 ft | 471 kts | 90° |
| 2026-05-05 13:20 | 4.67679 | -72.38736 | 34827 ft | 471 kts | 90° |
| 2026-05-05 13:20 | 4.67657 | -72.35452 | 35086 ft | 471 kts | 90° |
| 2026-05-05 13:20 | 4.67635 | -72.32175 | 35359 ft | 470 kts | 90° |
| 2026-05-05 13:21 | 4.67613 | -72.28897 | 35620 ft | 470 kts | 90° |
| 2026-05-05 13:21 | 4.67590 | -72.25615 | 35867 ft | 469 kts | 90° |
| 2026-05-05 13:21 | 4.67568 | -72.22341 | 36019 ft | 471 kts | 89° |
| 2026-05-05 13:21 | 4.67545 | -72.19050 | 36049 ft | 471 kts | 90° |
| 2026-05-05 13:22 | 4.67499 | -72.12509 | 36054 ft | 467 kts | 90° |
| 2026-05-05 13:22 | 4.67453 | -72.05994 | 36036 ft | 467 kts | 90° |
| 2026-05-05 13:23 | 4.67407 | -71.99486 | 36028 ft | 467 kts | 90° |
| 2026-05-05 13:23 | 4.67360 | -71.93002 | 36030 ft | 467 kts | 90° |
| 2026-05-05 13:24 | 4.67312 | -71.86486 | 36036 ft | 467 kts | 89° |
| 2026-05-05 13:24 | 4.67264 | -71.79973 | 36035 ft | 467 kts | 89° |
| 2026-05-05 13:25 | 4.67215 | -71.73456 | 36037 ft | 467 kts | 89° |
| 2026-05-05 13:25 | 4.67165 | -71.66937 | 36030 ft | 467 kts | 89° |
| 2026-05-05 13:26 | 4.67115 | -71.60427 | 36038 ft | 467 kts | 89° |
| 2026-05-05 13:26 | 4.67064 | -71.53913 | 36031 ft | 467 kts | 89° |
| 2026-05-05 13:27 | 4.67012 | -71.47449 | 36035 ft | 467 kts | 89° |
| 2026-05-05 13:27 | 4.66961 | -71.40936 | 36027 ft | 467 kts | 90° |
| 2026-05-05 13:28 | 4.66908 | -71.34430 | 36034 ft | 467 kts | 90° |
| 2026-05-05 13:28 | 4.66855 | -71.27926 | 36030 ft | 467 kts | 90° |
| 2026-05-05 13:29 | 4.66801 | -71.21425 | 36028 ft | 467 kts | 90° |
| 2026-05-05 13:29 | 4.66747 | -71.14908 | 36031 ft | 467 kts | 90° |
| 2026-05-05 13:30 | 4.66692 | -71.08399 | 36036 ft | 467 kts | 90° |
| 2026-05-05 13:30 | 4.66636 | -71.01894 | 36033 ft | 467 kts | 90° |
| 2026-05-05 13:31 | 4.66580 | -70.95381 | 36032 ft | 467 kts | 90° |
| 2026-05-05 13:31 | 4.66524 | -70.88921 | 36026 ft | 467 kts | 90° |
| 2026-05-05 13:32 | 4.66466 | -70.82416 | 36033 ft | 467 kts | 90° |
| 2026-05-05 13:32 | 4.66408 | -70.75910 | 36031 ft | 466 kts | 90° |
| 2026-05-05 13:33 | 4.66350 | -70.69401 | 36032 ft | 466 kts | 90° |
| 2026-05-05 13:33 | 4.66291 | -70.62893 | 36026 ft | 467 kts | 90° |
| 2026-05-05 13:34 | 4.66231 | -70.56391 | 36026 ft | 466 kts | 90° |
| 2026-05-05 13:34 | 4.66171 | -70.49888 | 36021 ft | 467 kts | 90° |
| 2026-05-05 13:35 | 4.66110 | -70.43429 | 36020 ft | 467 kts | 90° |
| 2026-05-05 13:35 | 4.66537 | -70.36960 | 36030 ft | 466 kts | 78° |
| 2026-05-05 13:36 | 4.68817 | -70.30916 | 36020 ft | 465 kts | 59° |
| 2026-05-05 13:36 | 4.72339 | -70.25467 | 36022 ft | 466 kts | 56° |
| 2026-05-05 13:37 | 4.75431 | -70.21042 | 36022 ft | 466 kts | 55° |
| 2026-05-05 13:37 | 4.79164 | -70.15728 | 36024 ft | 465 kts | 55° |
| 2026-05-05 13:38 | 4.82855 | -70.10413 | 36023 ft | 464 kts | 55° |
| 2026-05-05 13:38 | 4.86532 | -70.05081 | 36024 ft | 464 kts | 56° |
| 2026-05-05 13:39 | 4.90202 | -69.99749 | 36022 ft | 464 kts | 56° |
| 2026-05-05 13:39 | 4.93871 | -69.94418 | 36024 ft | 464 kts | 56° |
| 2026-05-05 13:40 | 4.97521 | -69.89117 | 36022 ft | 464 kts | 56° |
| 2026-05-05 13:40 | 5.01196 | -69.83778 | 36017 ft | 464 kts | 56° |
| 2026-05-05 13:41 | 5.04865 | -69.78448 | 36035 ft | 465 kts | 56° |
| 2026-05-05 13:41 | 5.08540 | -69.73107 | 36018 ft | 465 kts | 56° |
| 2026-05-05 13:42 | 5.12218 | -69.67759 | 36019 ft | 465 kts | 56° |
| 2026-05-05 13:42 | 5.15895 | -69.62412 | 36017 ft | 465 kts | 56° |
| 2026-05-05 13:43 | 5.19579 | -69.57055 | 36019 ft | 466 kts | 56° |
| 2026-05-05 13:43 | 5.23230 | -69.51743 | 36025 ft | 465 kts | 56° |
| 2026-05-05 13:44 | 5.26907 | -69.46392 | 36034 ft | 466 kts | 56° |
| 2026-05-05 13:44 | 5.30585 | -69.41039 | 36021 ft | 466 kts | 56° |
| 2026-05-05 13:45 | 5.34267 | -69.35679 | 36022 ft | 466 kts | 56° |
| 2026-05-05 13:45 | 5.37941 | -69.30330 | 36034 ft | 465 kts | 56° |
| 2026-05-05 13:46 | 5.41610 | -69.24985 | 36034 ft | 465 kts | 56° |
| 2026-05-05 13:46 | 5.45284 | -69.19632 | 36017 ft | 465 kts | 56° |
| 2026-05-05 13:47 | 5.48936 | -69.14311 | 36022 ft | 467 kts | 56° |
| 2026-05-05 13:47 | 5.52620 | -69.08941 | 36034 ft | 467 kts | 56° |
| 2026-05-05 13:48 | 5.56311 | -69.03560 | 36033 ft | 467 kts | 56° |
| 2026-05-05 13:48 | 5.59996 | -68.98186 | 36034 ft | 467 kts | 56° |
| 2026-05-05 13:49 | 5.63682 | -68.92808 | 36031 ft | 467 kts | 56° |
| 2026-05-05 13:49 | 5.67368 | -68.87430 | 36015 ft | 467 kts | 56° |
| 2026-05-05 13:50 | 5.71050 | -68.82056 | 36026 ft | 467 kts | 55° |
| 2026-05-05 13:50 | 5.74710 | -68.76712 | 36011 ft | 467 kts | 55° |
| 2026-05-05 13:51 | 5.78392 | -68.71337 | 36027 ft | 467 kts | 55° |
| 2026-05-05 13:51 | 5.82070 | -68.65964 | 36026 ft | 467 kts | 55° |
| 2026-05-05 13:52 | 5.85751 | -68.60585 | 36014 ft | 467 kts | 55° |
| 2026-05-05 13:52 | 5.89433 | -68.55205 | 36028 ft | 467 kts | 55° |
| 2026-05-05 13:53 | 5.93110 | -68.49829 | 36011 ft | 468 kts | 55° |
| 2026-05-05 13:53 | 5.96804 | -68.44427 | 36025 ft | 468 kts | 55° |
| 2026-05-05 13:54 | 6.00491 | -68.39034 | 36025 ft | 468 kts | 55° |
| 2026-05-05 13:54 | 6.04181 | -68.33634 | 36022 ft | 470 kts | 54° |
| 2026-05-05 13:55 | 6.07891 | -68.28206 | 36023 ft | 471 kts | 55° |
| 2026-05-05 13:55 | 6.11578 | -68.22809 | 36009 ft | 472 kts | 54° |
| 2026-05-05 13:56 | 6.15299 | -68.17373 | 36024 ft | 472 kts | 53° |
| 2026-05-05 13:56 | 6.19504 | -68.12315 | 36006 ft | 472 kts | 48° |
| 2026-05-05 13:57 | 6.23892 | -68.07405 | 36009 ft | 472 kts | 47° |
| 2026-05-05 13:57 | 6.28318 | -68.02517 | 36027 ft | 472 kts | 47° |
| 2026-05-05 13:58 | 6.32737 | -67.97630 | 36027 ft | 472 kts | 47° |
| 2026-05-05 13:58 | 6.37145 | -67.92737 | 36009 ft | 473 kts | 47° |
| 2026-05-05 13:59 | 6.43738 | -67.85409 | 36021 ft | 473 kts | 47° |
| 2026-05-05 14:00 | 6.49644 | -67.78842 | 36024 ft | 473 kts | 47° |
| 2026-05-05 14:00 | 6.54773 | -67.73138 | 36026 ft | 473 kts | 47° |
| 2026-05-05 14:01 | 6.59194 | -67.68220 | 36026 ft | 473 kts | 47° |
| 2026-05-05 14:01 | 6.63578 | -67.63340 | 36026 ft | 473 kts | 47° |
| 2026-05-05 14:02 | 6.67989 | -67.58432 | 36031 ft | 473 kts | 47° |
| 2026-05-05 14:02 | 6.72401 | -67.53519 | 36010 ft | 473 kts | 47° |
| 2026-05-05 14:03 | 6.76815 | -67.48597 | 36026 ft | 473 kts | 47° |
| 2026-05-05 14:03 | 6.81226 | -67.43677 | 36026 ft | 473 kts | 47° |
| 2026-05-05 14:04 | 6.85610 | -67.38784 | 36025 ft | 473 kts | 47° |
| 2026-05-05 14:04 | 6.90021 | -67.33861 | 36026 ft | 473 kts | 47° |
| 2026-05-05 14:05 | 6.94435 | -67.28933 | 36028 ft | 473 kts | 47° |
| 2026-05-05 14:05 | 6.98849 | -67.24006 | 36020 ft | 473 kts | 47° |
| 2026-05-05 14:06 | 7.03295 | -67.19113 | 36021 ft | 473 kts | 46° |
| 2026-05-05 14:06 | 7.07747 | -67.14236 | 36020 ft | 473 kts | 46° |
| 2026-05-05 14:07 | 7.12173 | -67.09379 | 36020 ft | 473 kts | 46° |
| 2026-05-05 14:07 | 7.16599 | -67.04460 | 36019 ft | 473 kts | 47° |
| 2026-05-05 14:08 | 7.20991 | -66.99517 | 36018 ft | 473 kts | 47° |
| 2026-05-05 14:08 | 7.25386 | -66.94575 | 36017 ft | 473 kts | 47° |
| 2026-05-05 14:09 | 7.29788 | -66.89637 | 36018 ft | 474 kts | 47° |
| 2026-05-05 14:09 | 7.34195 | -66.84698 | 36014 ft | 474 kts | 47° |
| 2026-05-05 14:10 | 7.38586 | -66.79770 | 36019 ft | 472 kts | 47° |
| 2026-05-05 14:10 | 7.42940 | -66.74886 | 36026 ft | 471 kts | 46° |
| 2026-05-05 14:11 | 7.47315 | -66.69978 | 36023 ft | 471 kts | 47° |
| 2026-05-05 14:11 | 7.51694 | -66.65069 | 36020 ft | 471 kts | 46° |
| 2026-05-05 14:12 | 7.56063 | -66.60161 | 36029 ft | 471 kts | 47° |
| 2026-05-05 14:12 | 7.60441 | -66.55240 | 36028 ft | 471 kts | 47° |
| 2026-05-05 14:13 | 7.64784 | -66.50282 | 36027 ft | 473 kts | 50° |
| 2026-05-05 14:13 | 7.68055 | -66.44536 | 36033 ft | 476 kts | 67° |
| 2026-05-05 14:14 | 7.68945 | -66.41319 | 36031 ft | 478 kts | 78° |
| 2026-05-05 14:14 | 7.69252 | -66.37977 | 36030 ft | 480 kts | 89° |
| 2026-05-05 14:14 | 7.68492 | -66.31312 | 36028 ft | 483 kts | 97° |
| 2026-05-05 14:15 | 7.67264 | -66.24636 | 36033 ft | 485 kts | 100° |
| 2026-05-05 14:15 | 7.65996 | -66.17946 | 36037 ft | 485 kts | 98° |
| 2026-05-05 14:16 | 7.64768 | -66.11254 | 36034 ft | 486 kts | 99° |
| 2026-05-05 14:16 | 7.63565 | -66.04554 | 36033 ft | 486 kts | 98° |
| 2026-05-05 14:17 | 7.62365 | -65.97857 | 36038 ft | 485 kts | 99° |
| 2026-05-05 14:17 | 7.61165 | -65.91155 | 36038 ft | 485 kts | 99° |
| 2026-05-05 14:18 | 7.59969 | -65.84491 | 36037 ft | 487 kts | 99° |
| 2026-05-05 14:18 | 7.58761 | -65.77774 | 36037 ft | 487 kts | 98° |
| 2026-05-05 14:19 | 7.57550 | -65.71048 | 36041 ft | 487 kts | 98° |
| 2026-05-05 14:19 | 7.56339 | -65.64330 | 36042 ft | 487 kts | 98° |
| 2026-05-05 14:20 | 7.55126 | -65.57603 | 36048 ft | 488 kts | 99° |
| 2026-05-05 14:20 | 7.53912 | -65.50876 | 36049 ft | 489 kts | 98° |
| 2026-05-05 14:21 | 7.52702 | -65.44180 | 36047 ft | 488 kts | 99° |
| 2026-05-05 14:21 | 7.51484 | -65.37443 | 36055 ft | 489 kts | 99° |
| 2026-05-05 14:22 | 7.50264 | -65.30704 | 36054 ft | 489 kts | 99° |
| 2026-05-05 14:22 | 7.49045 | -65.23971 | 36055 ft | 488 kts | 99° |
| 2026-05-05 14:23 | 7.47825 | -65.17240 | 36054 ft | 488 kts | 99° |
| 2026-05-05 14:23 | 7.46606 | -65.10523 | 36054 ft | 488 kts | 99° |
| 2026-05-05 14:24 | 7.45385 | -65.03800 | 36051 ft | 487 kts | 99° |
| 2026-05-05 14:24 | 7.44163 | -64.97078 | 36051 ft | 488 kts | 99° |
| 2026-05-05 14:25 | 7.42939 | -64.90347 | 36053 ft | 489 kts | 99° |
| 2026-05-05 14:25 | 7.41710 | -64.83602 | 36051 ft | 489 kts | 98° |
| 2026-05-05 14:26 | 7.40680 | -64.77952 | 36054 ft | 489 kts | 99° |
| 2026-05-05 14:26 | 7.39458 | -64.71251 | 36056 ft | 490 kts | 99° |
| 2026-05-05 14:27 | 7.38226 | -64.64506 | 36052 ft | 489 kts | 99° |
| 2026-05-05 14:27 | 7.36992 | -64.57758 | 36054 ft | 489 kts | 100° |
| 2026-05-05 14:28 | 7.35757 | -64.51014 | 36057 ft | 489 kts | 99° |
| 2026-05-05 14:28 | 7.34528 | -64.44276 | 36060 ft | 489 kts | 99° |
| 2026-05-05 14:29 | 7.33292 | -64.37515 | 36060 ft | 489 kts | 99° |
| 2026-05-05 14:29 | 7.32066 | -64.30817 | 36060 ft | 490 kts | 99° |
| 2026-05-05 14:30 | 7.30828 | -64.24065 | 36058 ft | 491 kts | 99° |
| 2026-05-05 14:30 | 7.29587 | -64.17304 | 36057 ft | 490 kts | 99° |
| 2026-05-05 14:31 | 7.28345 | -64.10543 | 36058 ft | 490 kts | 99° |
| 2026-05-05 14:31 | 7.27102 | -64.03787 | 36058 ft | 491 kts | 100° |
| 2026-05-05 14:32 | 7.25858 | -63.97023 | 36059 ft | 491 kts | 99° |
| 2026-05-05 14:32 | 7.24610 | -63.90249 | 36058 ft | 491 kts | 100° |
| 2026-05-05 14:33 | 7.23369 | -63.83519 | 36060 ft | 492 kts | 100° |
| 2026-05-05 14:33 | 7.22120 | -63.76749 | 36066 ft | 492 kts | 100° |
| 2026-05-05 14:34 | 7.20868 | -63.69970 | 36065 ft | 492 kts | 100° |
| 2026-05-05 14:34 | 7.19614 | -63.63183 | 36063 ft | 493 kts | 99° |
| 2026-05-05 14:35 | 7.18357 | -63.56386 | 36066 ft | 494 kts | 99° |
| 2026-05-05 14:35 | 7.17097 | -63.49571 | 35995 ft | 496 kts | 99° |
| 2026-05-05 14:36 | 7.15832 | -63.42748 | 36061 ft | 494 kts | 99° |
| 2026-05-05 14:36 | 7.14567 | -63.35920 | 36031 ft | 497 kts | 100° |
| 2026-05-05 14:37 | 7.13301 | -63.29106 | 36065 ft | 495 kts | 100° |
| 2026-05-05 14:37 | 7.12043 | -63.22340 | 36061 ft | 493 kts | 100° |
| 2026-05-05 14:38 | 7.10783 | -63.15556 | 36059 ft | 492 kts | 99° |
| 2026-05-05 14:38 | 7.09527 | -63.08799 | 36064 ft | 492 kts | 100° |
| 2026-05-05 14:39 | 7.08264 | -63.02036 | 36061 ft | 491 kts | 100° |
| 2026-05-05 14:39 | 7.06999 | -62.95270 | 36052 ft | 491 kts | 100° |
| 2026-05-05 14:40 | 7.05734 | -62.88495 | 36060 ft | 492 kts | 100° |
| 2026-05-05 14:40 | 7.04469 | -62.81727 | 36058 ft | 492 kts | 100° |
| 2026-05-05 14:41 | 7.03211 | -62.75003 | 36061 ft | 491 kts | 101° |
| 2026-05-05 14:41 | 7.01944 | -62.68239 | 36062 ft | 492 kts | 100° |
| 2026-05-05 14:42 | 7.00676 | -62.61475 | 36066 ft | 492 kts | 101° |
| 2026-05-05 14:42 | 6.99405 | -62.54696 | 36065 ft | 492 kts | 100° |
| 2026-05-05 14:43 | 6.98135 | -62.47929 | 36059 ft | 492 kts | 101° |
| 2026-05-05 14:43 | 6.96865 | -62.41172 | 36068 ft | 492 kts | 101° |
| 2026-05-05 14:44 | 6.95602 | -62.34454 | 36067 ft | 491 kts | 101° |
| 2026-05-05 14:44 | 6.94329 | -62.27687 | 36068 ft | 491 kts | 101° |
| 2026-05-05 14:45 | 6.93054 | -62.20917 | 36066 ft | 492 kts | 101° |
| 2026-05-05 14:45 | 6.91782 | -62.14158 | 36064 ft | 491 kts | 101° |
| 2026-05-05 14:46 | 6.90508 | -62.07391 | 36061 ft | 491 kts | 101° |
| 2026-05-05 14:46 | 6.89242 | -62.00676 | 36060 ft | 492 kts | 101° |
| 2026-05-05 14:47 | 6.87968 | -61.93919 | 36061 ft | 492 kts | 101° |
| 2026-05-05 14:47 | 6.86691 | -61.87158 | 36061 ft | 491 kts | 101° |
| 2026-05-05 14:48 | 6.85415 | -61.80406 | 36062 ft | 491 kts | 101° |
| 2026-05-05 14:48 | 6.84138 | -61.73651 | 36061 ft | 491 kts | 101° |
| 2026-05-05 14:49 | 6.82860 | -61.66898 | 36057 ft | 491 kts | 101° |
| 2026-05-05 14:49 | 6.81580 | -61.60143 | 36057 ft | 491 kts | 101° |
| 2026-05-05 14:50 | 6.80309 | -61.53436 | 36055 ft | 491 kts | 101° |
| 2026-05-05 14:50 | 6.79029 | -61.46687 | 36058 ft | 491 kts | 101° |
| 2026-05-05 14:51 | 6.77748 | -61.39938 | 36055 ft | 491 kts | 101° |
| 2026-05-05 14:51 | 6.76464 | -61.33179 | 36050 ft | 491 kts | 101° |
| 2026-05-05 14:52 | 6.75180 | -61.26427 | 36054 ft | 491 kts | 101° |
| 2026-05-05 14:52 | 6.73895 | -61.19678 | 36058 ft | 491 kts | 101° |
| 2026-05-05 14:53 | 6.72610 | -61.12929 | 36057 ft | 491 kts | 101° |
| 2026-05-05 14:53 | 6.71324 | -61.06177 | 36062 ft | 492 kts | 101° |
| 2026-05-05 14:54 | 6.70554 | -60.99387 | 36051 ft | 492 kts | 95° |
| 2026-05-05 14:54 | 6.70021 | -60.92517 | 36069 ft | 492 kts | 94° |
| 2026-05-05 14:55 | 6.69530 | -60.85647 | 36059 ft | 492 kts | 94° |
| 2026-05-05 14:55 | 6.69035 | -60.78777 | 36072 ft | 493 kts | 94° |
| 2026-05-05 14:56 | 6.68529 | -60.71908 | 36064 ft | 492 kts | 94° |
| 2026-05-05 14:56 | 6.68019 | -60.65045 | 36077 ft | 492 kts | 94° |
| 2026-05-05 14:57 | 6.67508 | -60.58178 | 36078 ft | 492 kts | 94° |
| 2026-05-05 14:57 | 6.66997 | -60.51316 | 36064 ft | 492 kts | 94° |
| 2026-05-05 14:58 | 6.66484 | -60.44443 | 36071 ft | 492 kts | 94° |
| 2026-05-05 14:58 | 6.65970 | -60.37570 | 36064 ft | 492 kts | 94° |
| 2026-05-05 14:59 | 6.65460 | -60.30760 | 36065 ft | 491 kts | 94° |
| 2026-05-05 14:59 | 6.64944 | -60.23898 | 36062 ft | 492 kts | 94° |
| 2026-05-05 15:00 | 6.64509 | -60.18199 | 36061 ft | 492 kts | 94° |
| 2026-05-05 15:00 | 6.63888 | -60.10186 | 36063 ft | 492 kts | 94° |
| 2026-05-05 15:01 | 6.63356 | -60.03322 | 36045 ft | 492 kts | 94° |
| 2026-05-05 15:01 | 6.62823 | -59.96453 | 36051 ft | 492 kts | 94° |
| 2026-05-05 15:02 | 6.62290 | -59.89599 | 36057 ft | 492 kts | 94° |
| 2026-05-05 15:02 | 6.61757 | -59.82741 | 36054 ft | 491 kts | 94° |
| 2026-05-05 15:03 | 6.61218 | -59.75833 | 36053 ft | 491 kts | 94° |
| 2026-05-05 15:03 | 6.60691 | -59.69088 | 36054 ft | 491 kts | 94° |
| 2026-05-05 15:04 | 6.60155 | -59.62238 | 36053 ft | 491 kts | 94° |
| 2026-05-05 15:05 | 6.58867 | -59.45749 | 36050 ft | 491 kts | 94° |
| 2026-05-05 15:06 | 6.58337 | -59.38896 | 36052 ft | 491 kts | 94° |
| 2026-05-05 15:06 | 6.57806 | -59.32055 | 36036 ft | 491 kts | 94° |
| 2026-05-05 15:07 | 6.57273 | -59.25208 | 36040 ft | 492 kts | 94° |
| 2026-05-05 15:07 | 6.56738 | -59.18336 | 36048 ft | 492 kts | 94° |
| 2026-05-05 15:08 | 6.56203 | -59.11463 | 36030 ft | 492 kts | 94° |
| 2026-05-05 15:08 | 6.55668 | -59.04609 | 36030 ft | 492 kts | 94° |
| 2026-05-05 15:09 | 6.55130 | -58.97739 | 36036 ft | 492 kts | 94° |
| 2026-05-05 15:09 | 6.54592 | -58.90871 | 36029 ft | 493 kts | 94° |
| 2026-05-05 15:10 | 6.54060 | -58.84005 | 36040 ft | 492 kts | 94° |
| 2026-05-05 15:10 | 6.53484 | -58.77151 | 36033 ft | 492 kts | 99° |
| 2026-05-05 15:11 | 6.51738 | -58.70550 | 36041 ft | 492 kts | 107° |
| 2026-05-05 15:11 | 6.49708 | -58.63978 | 36039 ft | 493 kts | 107° |
| 2026-05-05 15:12 | 6.47656 | -58.57401 | 36038 ft | 491 kts | 108° |
| 2026-05-05 15:12 | 6.45607 | -58.50845 | 36041 ft | 491 kts | 108° |
| 2026-05-05 15:13 | 6.43561 | -58.44305 | 36039 ft | 490 kts | 108° |
| 2026-05-05 15:13 | 6.41532 | -58.37827 | 36045 ft | 491 kts | 108° |
| 2026-05-05 15:14 | 6.39483 | -58.31284 | 36049 ft | 491 kts | 108° |
| 2026-05-05 15:14 | 6.37431 | -58.24737 | 36045 ft | 490 kts | 108° |
| 2026-05-05 15:15 | 6.35382 | -58.18204 | 36042 ft | 490 kts | 108° |
| 2026-05-05 15:15 | 6.34355 | -58.14928 | 37502 ft | 493 kts | 108° |
| 2026-05-05 15:15 | 6.33329 | -58.11660 | 35827 ft | 497 kts | 108° |
| 2026-05-05 15:15 | 6.32294 | -58.08362 | 35985 ft | 493 kts | 108° |
| 2026-05-05 15:16 | 6.31264 | -58.05079 | 36040 ft | 491 kts | 108° |
| 2026-05-05 15:16 | 6.29215 | -57.98553 | 36040 ft | 490 kts | 108° |
| 2026-05-05 15:17 | 6.27162 | -57.92018 | 36036 ft | 489 kts | 108° |
| 2026-05-05 15:17 | 6.25121 | -57.85524 | 36035 ft | 490 kts | 108° |
| 2026-05-05 15:18 | 6.23071 | -57.79004 | 35991 ft | 490 kts | 108° |
| 2026-05-05 15:18 | 6.21002 | -57.72432 | 36041 ft | 492 kts | 108° |
| 2026-05-05 15:19 | 6.18950 | -57.65909 | 36042 ft | 489 kts | 108° |
| 2026-05-05 15:19 | 6.16896 | -57.59386 | 36041 ft | 488 kts | 108° |
| 2026-05-05 15:20 | 6.14845 | -57.52878 | 36043 ft | 489 kts | 109° |
| 2026-05-05 15:20 | 6.12797 | -57.46378 | 36047 ft | 488 kts | 109° |
| 2026-05-05 15:21 | 6.10745 | -57.39872 | 36047 ft | 488 kts | 108° |
| 2026-05-05 15:21 | 6.08695 | -57.33373 | 36049 ft | 488 kts | 109° |
| 2026-05-05 15:22 | 6.08023 | -57.31243 | 36047 ft | 488 kts | 109° |
| 2026-05-05 15:22 | 6.06127 | -57.25237 | 36048 ft | 487 kts | 108° |
| 2026-05-05 15:23 | 6.04091 | -57.18790 | 35921 ft | 487 kts | 108° |
| 2026-05-05 15:23 | 6.03067 | -57.15549 | 35679 ft | 487 kts | 109° |
| 2026-05-05 15:23 | 6.02041 | -57.12300 | 35449 ft | 488 kts | 109° |
| 2026-05-05 15:23 | 6.01013 | -57.09047 | 35211 ft | 488 kts | 109° |
| 2026-05-05 15:24 | 5.99988 | -57.05803 | 34841 ft | 485 kts | 109° |
| 2026-05-05 15:24 | 5.98968 | -57.02578 | 34187 ft | 485 kts | 109° |
| 2026-05-05 15:24 | 5.97944 | -56.99341 | 33370 ft | 488 kts | 108° |
| 2026-05-05 15:24 | 5.96914 | -56.96085 | 32549 ft | 490 kts | 109° |
| 2026-05-05 15:25 | 5.95879 | -56.92816 | 31712 ft | 492 kts | 109° |
| 2026-05-05 15:25 | 5.94840 | -56.89534 | 30875 ft | 494 kts | 109° |
| 2026-05-05 15:25 | 5.93799 | -56.86245 | 30147 ft | 493 kts | 109° |
| 2026-05-05 15:25 | 5.92761 | -56.82965 | 29415 ft | 490 kts | 109° |
| 2026-05-05 15:26 | 5.91735 | -56.79721 | 28780 ft | 485 kts | 109° |
| 2026-05-05 15:26 | 5.90715 | -56.76502 | 28155 ft | 480 kts | 109° |
| 2026-05-05 15:26 | 5.89710 | -56.73328 | 27550 ft | 475 kts | 109° |
| 2026-05-05 15:26 | 5.88712 | -56.70178 | 26939 ft | 471 kts | 109° |
| 2026-05-05 15:27 | 5.87724 | -56.67060 | 26331 ft | 466 kts | 109° |
| 2026-05-05 15:27 | 5.86758 | -56.64013 | 25731 ft | 462 kts | 109° |
| 2026-05-05 15:27 | 5.85778 | -56.60963 | 25120 ft | 455 kts | 112° |
| 2026-05-05 15:27 | 5.84868 | -56.57949 | 24541 ft | 448 kts | 107° |
| 2026-05-05 15:28 | 5.84042 | -56.54944 | 23927 ft | 445 kts | 109° |
| 2026-05-05 15:28 | 5.83067 | -56.51998 | 23265 ft | 443 kts | 110° |
| 2026-05-05 15:28 | 5.82090 | -56.49073 | 22624 ft | 439 kts | 109° |
| 2026-05-05 15:28 | 5.81141 | -56.46181 | 22025 ft | 434 kts | 109° |
| 2026-05-05 15:29 | 5.80209 | -56.43305 | 21430 ft | 430 kts | 108° |
| 2026-05-05 15:29 | 5.79298 | -56.40466 | 20837 ft | 426 kts | 108° |
| 2026-05-05 15:29 | 5.78399 | -56.37653 | 20250 ft | 421 kts | 108° |
| 2026-05-05 15:29 | 5.77510 | -56.34866 | 19674 ft | 417 kts | 108° |
| 2026-05-05 15:30 | 5.76630 | -56.32103 | 19103 ft | 413 kts | 107° |
| 2026-05-05 15:30 | 5.75759 | -56.29364 | 18532 ft | 410 kts | 107° |
| 2026-05-05 15:30 | 5.74896 | -56.26651 | 17917 ft | 406 kts | 107° |
| 2026-05-05 15:30 | 5.74044 | -56.23970 | 17326 ft | 401 kts | 107° |
| 2026-05-05 15:31 | 5.73203 | -56.21323 | 16786 ft | 396 kts | 107° |
| 2026-05-05 15:31 | 5.72371 | -56.18708 | 16228 ft | 391 kts | 107° |
| 2026-05-05 15:31 | 5.71549 | -56.16123 | 15678 ft | 386 kts | 107° |
| 2026-05-05 15:31 | 5.70737 | -56.13569 | 15131 ft | 382 kts | 107° |
| 2026-05-05 15:32 | 5.69932 | -56.11040 | 14582 ft | 378 kts | 107° |
| 2026-05-05 15:32 | 5.69135 | -56.08534 | 14047 ft | 375 kts | 107° |
| 2026-05-05 15:32 | 5.68347 | -56.06057 | 13469 ft | 371 kts | 107° |
| 2026-05-05 15:32 | 5.67574 | -56.03628 | 12916 ft | 367 kts | 107° |
| 2026-05-05 15:33 | 5.66802 | -56.01205 | 12383 ft | 362 kts | 107° |
| 2026-05-05 15:33 | 5.66040 | -55.98813 | 11860 ft | 358 kts | 107° |
| 2026-05-05 15:33 | 5.65288 | -55.96450 | 11336 ft | 353 kts | 107° |
| 2026-05-05 15:33 | 5.64544 | -55.94113 | 10824 ft | 349 kts | 107° |
| 2026-05-05 15:34 | 5.63814 | -55.91823 | 10551 ft | 337 kts | 107° |
| 2026-05-05 15:34 | 5.63115 | -55.89631 | 10463 ft | 322 kts | 107° |
| 2026-05-05 15:34 | 5.62449 | -55.87541 | 10357 ft | 308 kts | 107° |
| 2026-05-05 15:34 | 5.61809 | -55.85534 | 10222 ft | 296 kts | 107° |
| 2026-05-05 15:35 | 5.61192 | -55.83599 | 10098 ft | 286 kts | 107° |
| 2026-05-05 15:35 | 5.60595 | -55.81723 | 9921 ft | 279 kts | 107° |
| 2026-05-05 15:35 | 5.60008 | -55.79880 | 9601 ft | 276 kts | 107° |
| 2026-05-05 15:35 | 5.59426 | -55.78053 | 9247 ft | 274 kts | 107° |
| 2026-05-05 15:36 | 5.58845 | -55.76230 | 8878 ft | 274 kts | 106° |
| 2026-05-05 15:36 | 5.58264 | -55.74409 | 8540 ft | 273 kts | 107° |
| 2026-05-05 15:36 | 5.57686 | -55.72597 | 8206 ft | 272 kts | 107° |
| 2026-05-05 15:36 | 5.57110 | -55.70789 | 7874 ft | 271 kts | 107° |
| 2026-05-05 15:37 | 5.56537 | -55.68993 | 7537 ft | 270 kts | 106° |
| 2026-05-05 15:37 | 5.55966 | -55.67205 | 7209 ft | 268 kts | 106° |
| 2026-05-05 15:37 | 5.55399 | -55.65425 | 6880 ft | 267 kts | 106° |
| 2026-05-05 15:37 | 5.55025 | -55.64254 | 6653 ft | 266 kts | 107° |
| 2026-05-05 15:38 | 5.54276 | -55.61904 | 6168 ft | 265 kts | 107° |
| 2026-05-05 15:38 | 5.53715 | -55.60149 | 5838 ft | 264 kts | 106° |
| 2026-05-05 15:38 | 5.53156 | -55.58401 | 5492 ft | 262 kts | 106° |
| 2026-05-05 15:38 | 5.52603 | -55.56668 | 5176 ft | 259 kts | 106° |
| 2026-05-05 15:39 | 5.52055 | -55.54950 | 4838 ft | 258 kts | 106° |
| 2026-05-05 15:39 | 5.51695 | -55.53824 | 4624 ft | 257 kts | 106° |
| 2026-05-05 15:39 | 5.51149 | -55.52113 | 4282 ft | 255 kts | 106° |
| 2026-05-05 15:39 | 5.50609 | -55.50424 | 3959 ft | 253 kts | 105° |
| 2026-05-05 15:40 | 5.50074 | -55.48749 | 3643 ft | 251 kts | 106° |
| 2026-05-05 15:40 | 5.49540 | -55.47076 | 3306 ft | 252 kts | 106° |